Time;durP1;ratioP1;P1;durP2;ratioP2;P2;SDS_P1;SDS_P2;PMS_P1;PMS_P2;Temp;Humidity;BMP_temperature;BMP_pressure;BME280_temperature;BME280_humidity;BME280_pressure;Samples;Min_cycle;Max_cycle;Signal;HPM_P1;HPM_P2
2021/05/20 00:00:25;;;;;;;1.42;1.33;;;9.20;99.90;;;;;;5070795;28;20200;-72
2021/05/20 00:02:52;;;;;;;2.75;1.45;;;9.20;99.90;;;;;;5071660;28;20197;-72
2021/05/20 00:05:19;;;;;;;1.55;1.40;;;9.20;99.90;;;;;;5070778;28;20200;-71
2021/05/20 00:07:46;;;;;;;1.90;1.58;;;9.20;99.90;;;;;;5071069;28;20228;-73
2021/05/20 00:10:13;;;;;;;2.17;1.42;;;9.10;99.90;;;;;;5070498;28;20207;-71
2021/05/20 00:12:39;;;;;;;1.30;1.20;;;9.10;99.90;;;;;;5070967;28;20200;-72
2021/05/20 00:15:07;;;;;;;1.50;1.10;;;9.10;99.90;;;;;;5070748;28;20199;-71
2021/05/20 00:17:33;;;;;;;1.45;1.05;;;9.20;99.90;;;;;;5070589;28;20734;-72
2021/05/20 00:20:00;;;;;;;1.50;1.38;;;9.10;99.90;;;;;;5070407;28;20208;-74
2021/05/20 00:22:29;;;;;;;1.42;1.23;;;9.10;99.90;;;;;;5070371;28;20695;-72
2021/05/20 00:24:55;;;;;;;2.55;1.30;;;9.10;99.90;;;;;;5070800;28;20208;-72
2021/05/20 00:27:21;;;;;;;1.85;1.27;;;9.10;99.90;;;;;;5070114;28;20228;-72
2021/05/20 00:29:49;;;;;;;1.42;1.33;;;9.10;99.90;;;;;;5070343;28;20225;-71
2021/05/20 00:32:15;;;;;;;1.92;1.20;;;9.00;99.90;;;;;;5070589;28;20211;-71
2021/05/20 00:34:41;;;;;;;1.55;1.30;;;9.00;99.90;;;;;;5070155;28;20263;-72
2021/05/20 00:37:08;;;;;;;2.85;1.45;;;8.90;99.90;;;;;;5070220;28;20254;-71
2021/05/20 00:39:35;;;;;;;1.30;1.20;;;8.90;99.90;;;;;;5070128;28;20577;-71
2021/05/20 00:42:06;;;;;;;1.48;1.38;;;8.90;99.90;;;;;;5069829;28;20199;-73
2021/05/20 00:44:32;;;;;;;1.95;1.50;;;8.80;99.90;;;;;;5069635;28;20200;-71
2021/05/20 00:46:58;;;;;;;2.33;1.55;;;8.90;99.90;;;;;;5070079;28;20192;-71
2021/05/20 00:49:24;;;;;;;2.40;1.60;;;8.80;99.90;;;;;;5069792;28;20204;-73
2021/05/20 00:51:51;;;;;;;1.05;0.95;;;8.90;99.90;;;;;;5070187;28;20311;-72
2021/05/20 00:54:17;;;;;;;1.55;1.40;;;8.80;99.90;;;;;;5069998;28;20200;-71
2021/05/20 00:56:44;;;;;;;1.42;1.30;;;8.90;99.90;;;;;;5070207;28;20223;-72
2021/05/20 00:59:10;;;;;;;1.33;1.23;;;8.80;99.90;;;;;;5069422;28;20252;-73
2021/05/20 01:01:37;;;;;;;1.50;1.13;;;8.80;99.90;;;;;;5070074;28;20208;-73
2021/05/20 01:04:04;;;;;;;2.90;1.50;;;8.70;99.90;;;;;;5069912;28;20608;-73
2021/05/20 01:06:30;;;;;;;1.90;1.30;;;8.70;99.90;;;;;;5069948;28;20200;-72
2021/05/20 01:08:57;;;;;;;2.17;1.40;;;8.70;99.90;;;;;;5069827;28;20228;-72
2021/05/20 01:11:23;;;;;;;2.00;1.80;;;8.70;99.90;;;;;;5070284;28;20254;-73
2021/05/20 01:13:50;;;;;;;2.05;1.35;;;8.80;99.90;;;;;;5070112;28;20200;-71
2021/05/20 01:16:16;;;;;;;2.58;1.45;;;8.80;99.90;;;;;;5069721;28;20226;-73
2021/05/20 01:18:43;;;;;;;1.80;1.38;;;8.80;99.90;;;;;;5069753;28;20224;-71
2021/05/20 01:21:10;;;;;;;1.48;1.38;;;8.80;99.90;;;;;;5069652;28;20663;-72
2021/05/20 01:23:36;;;;;;;1.40;1.30;;;8.70;99.90;;;;;;5071875;28;20204;-71
2021/05/20 01:26:04;;;;;;;1.83;1.40;;;8.70;99.90;;;;;;5074066;28;20204;-71
2021/05/20 01:28:33;;;;;;;1.70;1.25;;;8.60;99.90;;;;;;5072983;28;20323;-73
2021/05/20 01:30:59;;;;;;;2.55;1.20;;;8.60;99.90;;;;;;5074050;28;20200;-74
2021/05/20 01:33:26;;;;;;;1.75;1.17;;;8.60;99.90;;;;;;5073800;28;20200;-72
2021/05/20 01:35:52;;;;;;;1.45;1.35;;;8.60;99.90;;;;;;5073577;28;20589;-72
2021/05/20 01:41:07;;;;;;;1.90;1.48;;;8.40;99.90;;;;;;5072302;28;20590;-71
2021/05/20 01:43:34;;;;;;;2.85;1.70;;;8.40;99.90;;;;;;5073488;28;20212;-71
2021/05/20 01:46:00;;;;;;;1.50;1.30;;;8.40;99.90;;;;;;5072657;28;20200;-73
2021/05/20 01:48:27;;;;;;;1.50;1.40;;;8.30;99.90;;;;;;5072914;28;20236;-71
2021/05/20 01:51:00;;;;;;;2.10;1.67;;;8.20;99.90;;;;;;5073525;28;20200;-71
2021/05/20 01:53:27;;;;;;;1.50;1.23;;;8.20;99.90;;;;;;5073493;28;20275;-72
2021/05/20 01:55:54;;;;;;;5.70;1.67;;;8.20;99.90;;;;;;5073529;28;20696;-71
2021/05/20 01:58:20;;;;;;;1.80;1.40;;;8.10;99.90;;;;;;5072840;28;20229;-72
2021/05/20 02:00:46;;;;;;;2.92;1.65;;;8.10;99.90;;;;;;5072129;28;20208;-71
2021/05/20 02:03:12;;;;;;;2.47;1.65;;;8.10;99.90;;;;;;5072891;28;20568;-71
2021/05/20 02:05:38;;;;;;;2.08;1.52;;;8.10;99.90;;;;;;5073285;28;20254;-71
2021/05/20 02:08:05;;;;;;;1.85;1.50;;;8.00;99.90;;;;;;5072761;28;20232;-71
2021/05/20 02:10:32;;;;;;;1.85;1.40;;;8.00;99.90;;;;;;5072915;28;20694;-71
2021/05/20 02:12:58;;;;;;;1.65;1.40;;;8.00;99.90;;;;;;5072947;28;20270;-72
2021/05/20 02:15:24;;;;;;;1.85;1.40;;;7.90;99.90;;;;;;5072692;28;20201;-71
2021/05/20 02:17:53;;;;;;;1.55;1.40;;;7.80;99.90;;;;;;5073053;28;20228;-72
2021/05/20 02:20:20;;;;;;;1.75;1.50;;;7.80;99.90;;;;;;5072692;28;20307;-71
2021/05/20 02:22:46;;;;;;;2.20;1.40;;;7.80;99.90;;;;;;5073190;28;20208;-72
2021/05/20 02:25:13;;;;;;;3.67;1.30;;;7.70;99.90;;;;;;5072826;28;20208;-72
2021/05/20 02:27:40;;;;;;;1.77;1.38;;;7.80;99.90;;;;;;5072715;28;20239;-71
2021/05/20 02:30:07;;;;;;;2.75;1.55;;;7.80;99.90;;;;;;5072614;28;20212;-72
2021/05/20 02:32:33;;;;;;;1.75;1.55;;;7.70;99.90;;;;;;5073168;28;20565;-71
2021/05/20 02:34:59;;;;;;;1.48;1.30;;;7.60;99.90;;;;;;5072507;28;20200;-71
2021/05/20 02:37:26;;;;;;;2.38;1.60;;;7.60;99.90;;;;;;5072350;28;20225;-71
2021/05/20 02:39:52;;;;;;;2.50;1.67;;;7.60;99.90;;;;;;5072587;28;20237;-71
2021/05/20 02:42:18;;;;;;;2.47;1.85;;;7.50;99.90;;;;;;5071719;28;20208;-72
2021/05/20 02:44:45;;;;;;;1.67;1.33;;;7.50;99.90;;;;;;5071651;28;20246;-71
2021/05/20 02:47:11;;;;;;;2.20;1.40;;;7.50;99.90;;;;;;5072730;28;20205;-72
2021/05/20 02:49:38;;;;;;;3.28;1.58;;;7.50;99.90;;;;;;5072279;28;20212;-71
2021/05/20 02:52:04;;;;;;;2.75;1.80;;;7.50;99.90;;;;;;5072518;28;20211;-71
2021/05/20 02:54:30;;;;;;;2.13;1.52;;;7.60;99.90;;;;;;5072626;28;20736;-71
2021/05/20 02:56:57;;;;;;;2.75;1.20;;;7.50;99.90;;;;;;5072225;28;20734;-72
2021/05/20 02:59:23;;;;;;;1.33;1.23;;;7.50;99.90;;;;;;5072114;28;20205;-71
2021/05/20 03:01:50;;;;;;;1.80;1.58;;;7.50;99.90;;;;;;5072099;28;20204;-71
2021/05/20 03:04:16;;;;;;;2.00;1.40;;;7.50;99.90;;;;;;5072304;28;20209;-72
2021/05/20 03:06:42;;;;;;;3.90;1.40;;;7.50;99.90;;;;;;5072157;28;20200;-71
2021/05/20 03:09:10;;;;;;;1.85;1.30;;;7.50;99.90;;;;;;5071888;28;20747;-72
2021/05/20 03:11:36;;;;;;;1.45;1.20;;;7.50;99.90;;;;;;5072049;28;20200;-71
2021/05/20 03:14:03;;;;;;;2.17;1.60;;;7.60;99.90;;;;;;5071603;28;20729;-72
2021/05/20 03:16:29;;;;;;;2.13;1.38;;;7.60;99.90;;;;;;5072180;28;20587;-71
2021/05/20 03:18:56;;;;;;;2.50;1.67;;;7.60;99.90;;;;;;5071643;28;20225;-71
2021/05/20 03:21:22;;;;;;;1.25;1.15;;;7.50;99.90;;;;;;5071818;28;20208;-71
2021/05/20 03:23:48;;;;;;;1.70;1.50;;;7.60;99.90;;;;;;5071931;28;20664;-71
2021/05/20 03:26:15;;;;;;;2.83;1.38;;;7.60;99.90;;;;;;5071595;28;20249;-71
2021/05/20 03:28:41;;;;;;;1.73;1.50;;;7.60;99.90;;;;;;5071180;28;20220;-71
2021/05/20 03:31:07;;;;;;;1.65;1.45;;;7.70;99.90;;;;;;5071425;28;20236;-72
2021/05/20 03:33:33;;;;;;;1.20;1.10;;;7.70;99.90;;;;;;5071889;28;20652;-71
2021/05/20 03:36:00;;;;;;;2.85;1.70;;;7.70;99.90;;;;;;5071630;28;20220;-71
2021/05/20 03:38:27;;;;;;;3.08;1.70;;;7.70;99.90;;;;;;5070246;28;20699;-72
2021/05/20 03:40:53;;;;;;;1.73;1.30;;;7.70;99.90;;;;;;5071067;28;20208;-71
2021/05/20 03:43:19;;;;;;;2.95;1.50;;;7.70;99.90;;;;;;5071369;28;20200;-72
2021/05/20 03:45:45;;;;;;;1.70;1.60;;;7.70;99.90;;;;;;5070361;28;20208;-72
2021/05/20 03:48:11;;;;;;;3.70;1.38;;;7.80;99.90;;;;;;5070925;28;20280;-71
2021/05/20 03:50:40;;;;;;;1.35;1.20;;;7.80;99.90;;;;;;5071400;28;20211;-72
2021/05/20 03:53:07;;;;;;;2.28;1.60;;;7.90;99.90;;;;;;5071471;28;20201;-72
2021/05/20 03:55:33;;;;;;;3.30;1.30;;;7.80;99.90;;;;;;5072653;28;20202;-70
2021/05/20 03:57:59;;;;;;;2.22;1.50;;;7.80;99.90;;;;;;5070778;28;20231;-69
2021/05/20 04:00:26;;;;;;;2.47;1.50;;;7.90;99.90;;;;;;5069890;28;20565;-69
2021/05/20 04:02:52;;;;;;;8.10;1.48;;;7.90;99.90;;;;;;5071258;28;20200;-70
2021/05/20 04:05:18;;;;;;;2.38;1.58;;;7.90;99.90;;;;;;5070743;28;20694;-69
2021/05/20 04:07:44;;;;;;;1.48;1.23;;;7.80;99.90;;;;;;5070929;28;20653;-70
2021/05/20 04:10:13;;;;;;;2.30;1.30;;;7.90;99.90;;;;;;5069985;28;20203;-70
2021/05/20 04:12:39;;;;;;;2.17;1.30;;;7.90;99.90;;;;;;5069653;28;20188;-70
2021/05/20 04:15:07;;;;;;;1.17;1.08;;;7.90;99.90;;;;;;5070664;28;20208;-71
2021/05/20 04:17:33;;;;;;;2.00;1.67;;;7.90;99.90;;;;;;5070654;28;20702;-70
2021/05/20 04:19:59;;;;;;;1.83;1.23;;;7.90;99.90;;;;;;5070659;28;20730;-70
2021/05/20 04:22:25;;;;;;;1.90;1.70;;;7.90;99.90;;;;;;5069856;28;20212;-70
2021/05/20 04:24:52;;;;;;;1.35;1.25;;;7.90;99.90;;;;;;5070057;28;20200;-70
2021/05/20 04:27:19;;;;;;;1.27;1.17;;;7.90;99.90;;;;;;5069800;28;20232;-69
2021/05/20 04:29:46;;;;;;;1.55;1.45;;;7.90;99.90;;;;;;5070228;28;20200;-70
2021/05/20 04:32:12;;;;;;;1.88;1.52;;;8.00;99.90;;;;;;5070705;28;20200;-69
2021/05/20 04:34:38;;;;;;;1.35;1.25;;;8.00;99.90;;;;;;5070674;28;20312;-69
2021/05/20 04:37:07;;;;;;;2.58;1.60;;;8.00;99.90;;;;;;5070426;28;20216;-69
2021/05/20 04:39:34;;;;;;;3.55;1.45;;;7.90;99.90;;;;;;5070425;28;20215;-71
2021/05/20 04:42:01;;;;;;;2.13;1.23;;;7.90;99.90;;;;;;5069722;28;20210;-70
2021/05/20 04:44:28;;;;;;;2.72;1.50;;;7.90;99.90;;;;;;5070385;28;20208;-69
2021/05/20 04:46:54;;;;;;;2.00;1.50;;;7.90;99.90;;;;;;5070685;28;20221;-70
2021/05/20 04:49:20;;;;;;;1.73;1.00;;;7.90;99.90;;;;;;5070035;28;20236;-69
2021/05/20 04:51:47;;;;;;;2.47;1.30;;;7.90;99.90;;;;;;5070405;28;20204;-69
2021/05/20 04:54:13;;;;;;;1.60;1.50;;;7.90;99.90;;;;;;5070105;28;20200;-70
2021/05/20 04:56:39;;;;;;;2.33;1.75;;;7.90;99.90;;;;;;5070365;28;20640;-69
2021/05/20 04:59:06;;;;;;;1.38;1.27;;;7.90;99.90;;;;;;5069675;28;20243;-69
2021/05/20 05:01:33;;;;;;;1.90;1.60;;;8.00;99.90;;;;;;5070271;28;20240;-71
2021/05/20 05:03:59;;;;;;;4.50;1.52;;;8.00;99.90;;;;;;5069598;28;20205;-70
2021/05/20 05:06:26;;;;;;;1.65;1.20;;;7.90;99.90;;;;;;5068967;28;20215;-70
2021/05/20 05:08:52;;;;;;;1.40;1.30;;;7.90;99.90;;;;;;5065044;28;20228;-73
2021/05/20 05:11:19;;;;;;;1.20;1.00;;;7.90;99.90;;;;;;5069118;28;20254;-70
2021/05/20 05:13:45;;;;;;;2.08;1.33;;;7.80;99.90;;;;;;5050441;28;20625;-69
2021/05/20 05:16:11;;;;;;;1.63;1.35;;;7.90;99.90;;;;;;5049650;28;20221;-69
2021/05/20 05:18:38;;;;;;;1.60;1.50;;;7.90;99.90;;;;;;5049266;28;20271;-69
2021/05/20 05:21:05;;;;;;;1.30;1.20;;;8.00;99.90;;;;;;5050019;28;20255;-70
2021/05/20 05:23:32;;;;;;;1.67;1.20;;;8.00;99.90;;;;;;5049968;28;20212;-70
2021/05/20 05:25:58;;;;;;;2.60;2.40;;;8.10;99.90;;;;;;5050067;28;20225;-69
2021/05/20 05:28:24;;;;;;;1.50;1.40;;;8.10;99.90;;;;;;5049017;28;20237;-72
2021/05/20 05:30:51;;;;;;;1.20;1.10;;;8.20;99.90;;;;;;5056914;28;20196;-70
2021/05/20 05:33:18;;;;;;;1.58;1.35;;;8.30;99.90;;;;;;5068872;28;20204;-70
2021/05/20 05:35:45;;;;;;;1.83;1.48;;;8.40;99.90;;;;;;5069359;28;20201;-71
2021/05/20 05:38:13;;;;;;;1.50;1.30;;;8.60;99.90;;;;;;5066190;28;20589;-70
2021/05/20 05:40:40;;;;;;;2.30;1.30;;;8.80;99.90;;;;;;5069565;28;20208;-71
2021/05/20 05:43:06;;;;;;;1.90;1.63;;;8.90;99.90;;;;;;5069487;28;20230;-70
2021/05/20 05:45:32;;;;;;;2.65;1.60;;;9.10;99.90;;;;;;5069578;28;20469;-70
2021/05/20 05:47:59;;;;;;;1.80;1.50;;;9.30;99.90;;;;;;5069412;28;20231;-69
2021/05/20 05:50:25;;;;;;;2.67;1.38;;;9.40;99.90;;;;;;5069476;28;20209;-72
2021/05/20 05:52:52;;;;;;;1.15;1.05;;;9.60;99.90;;;;;;5069926;28;20618;-70
2021/05/20 05:55:19;;;;;;;2.17;1.52;;;9.80;99.90;;;;;;5069043;28;20196;-72
2021/05/20 05:57:45;;;;;;;2.85;1.42;;;9.90;99.90;;;;;;5068993;28;20723;-74
2021/05/20 06:00:12;;;;;;;1.85;1.38;;;9.90;99.90;;;;;;5067228;28;20207;-71
2021/05/20 06:02:38;;;;;;;1.58;1.40;;;9.90;99.90;;;;;;5068814;28;20208;-70
2021/05/20 06:05:06;;;;;;;1.30;1.10;;;10.00;99.90;;;;;;5068652;28;20197;-69
2021/05/20 06:07:35;;;;;;;1.60;1.30;;;10.00;99.90;;;;;;5066271;28;20216;-69
2021/05/20 06:10:03;;;;;;;2.05;1.35;;;10.00;99.90;;;;;;5070918;28;20200;-71
2021/05/20 06:12:29;;;;;;;2.50;1.40;;;10.00;99.90;;;;;;5072497;28;20300;-72
2021/05/20 06:14:56;;;;;;;3.63;1.30;;;10.10;99.90;;;;;;5072592;28;20455;-71
2021/05/20 06:17:23;;;;;;;1.10;1.00;;;10.10;99.90;;;;;;5072135;28;20243;-72
2021/05/20 06:19:49;;;;;;;2.08;1.20;;;10.10;99.90;;;;;;5072562;28;20751;-70
2021/05/20 06:22:15;;;;;;;2.38;1.40;;;10.10;99.90;;;;;;5072681;28;20205;-69
2021/05/20 06:24:41;;;;;;;1.63;1.52;;;10.10;99.90;;;;;;5073070;28;20228;-69
2021/05/20 06:27:09;;;;;;;2.17;1.20;;;10.20;99.90;;;;;;5072874;28;20203;-69
2021/05/20 06:29:35;;;;;;;1.88;1.35;;;10.30;99.90;;;;;;5072610;28;20223;-70
2021/05/20 06:32:01;;;;;;;1.60;1.17;;;10.20;99.90;;;;;;5072358;28;20258;-70
2021/05/20 06:34:27;;;;;;;3.38;1.35;;;10.30;99.90;;;;;;5072590;28;20203;-69
2021/05/20 06:36:56;;;;;;;1.48;1.30;;;10.50;99.90;;;;;;5072598;28;20220;-70
2021/05/20 06:39:23;;;;;;;3.70;1.52;;;10.70;99.90;;;;;;5072183;28;20204;-69
2021/05/20 06:41:49;;;;;;;2.00;1.50;;;10.80;99.90;;;;;;5072240;28;20291;-70
2021/05/20 06:44:16;;;;;;;1.67;1.10;;;10.80;99.90;;;;;;5072351;28;20270;-69
2021/05/20 06:46:42;;;;;;;1.85;1.30;;;10.80;99.90;;;;;;5072622;28;20196;-69
2021/05/20 06:49:08;;;;;;;1.23;1.13;;;10.70;99.90;;;;;;5071644;28;20224;-69
2021/05/20 06:51:35;;;;;;;3.63;1.65;;;10.70;99.90;;;;;;5072387;28;20622;-70
2021/05/20 06:54:01;;;;;;;2.03;1.60;;;10.80;99.90;;;;;;5069899;28;20204;-71
2021/05/20 06:56:29;;;;;;;1.55;1.45;;;11.00;99.90;;;;;;5071661;28;20224;-71
2021/05/20 07:01:45;;;;;;;1.67;1.48;;;11.30;99.90;;;;;;5065708;28;20227;-71
2021/05/20 07:04:11;;;;;;;1.40;1.30;;;11.50;99.90;;;;;;5071835;28;20212;-72
2021/05/20 07:06:37;;;;;;;1.58;1.48;;;11.60;99.90;;;;;;5072358;28;20536;-72
2021/05/20 07:09:04;;;;;;;3.38;1.80;;;11.70;99.90;;;;;;5071191;28;20722;-71
2021/05/20 07:11:31;;;;;;;1.92;1.40;;;11.70;99.90;;;;;;5071651;28;20200;-71
2021/05/20 07:13:57;;;;;;;1.85;1.20;;;11.60;99.90;;;;;;5071938;28;20204;-70
2021/05/20 07:16:23;;;;;;;1.75;1.60;;;11.50;99.90;;;;;;5071606;28;20228;-70
2021/05/20 07:18:51;;;;;;;1.90;1.50;;;11.60;99.90;;;;;;5071060;28;20224;-70
2021/05/20 07:21:17;;;;;;;1.98;1.77;;;11.80;99.90;;;;;;5070281;28;20261;-70
2021/05/20 07:23:43;;;;;;;1.42;1.33;;;11.90;99.90;;;;;;5071855;28;20619;-70
2021/05/20 07:26:09;;;;;;;2.60;1.55;;;11.90;99.90;;;;;;5072106;28;20254;-70
2021/05/20 07:28:35;;;;;;;1.50;1.40;;;12.00;99.90;;;;;;5071052;28;20282;-71
2021/05/20 07:31:02;;;;;;;2.08;1.52;;;12.00;99.90;;;;;;5071458;28;20208;-70
2021/05/20 07:33:30;;;;;;;1.92;1.50;;;12.00;99.90;;;;;;5071059;28;20253;-70
2021/05/20 07:35:57;;;;;;;1.63;1.50;;;12.00;99.90;;;;;;5071913;28;20208;-70
2021/05/20 07:38:23;;;;;;;1.95;1.40;;;12.00;99.90;;;;;;5070780;28;20229;-70
2021/05/20 07:40:49;;;;;;;1.58;1.45;;;12.00;99.90;;;;;;5071139;28;20205;-70
2021/05/20 07:43:15;;;;;;;1.38;1.27;;;12.10;99.90;;;;;;5071299;28;20702;-71
2021/05/20 07:45:42;;;;;;;1.97;1.20;;;12.10;99.90;;;;;;5071048;28;20675;-70
2021/05/20 07:48:08;;;;;;;1.30;1.20;;;12.20;99.90;;;;;;5070801;28;20479;-71
2021/05/20 07:50:35;;;;;;;1.25;1.15;;;12.10;99.90;;;;;;5071441;28;20204;-72
2021/05/20 07:53:02;;;;;;;1.33;1.23;;;12.00;99.90;;;;;;5070995;28;20197;-70
2021/05/20 07:55:28;;;;;;;1.70;1.60;;;12.10;99.90;;;;;;5071062;28;20253;-71
2021/05/20 07:57:55;;;;;;;2.55;1.30;;;12.10;99.90;;;;;;5070518;28;20231;-70
2021/05/20 08:00:22;;;;;;;1.52;1.40;;;12.20;99.90;;;;;;5070713;28;20652;-71
2021/05/20 08:02:51;;;;;;;1.92;1.83;;;12.30;99.90;;;;;;5071201;28;20220;-71
2021/05/20 08:05:25;;;;;;;2.15;1.10;;;12.50;99.90;;;;;;5070391;28;20729;-71
2021/05/20 08:07:56;;;;;;;2.33;1.50;;;12.50;99.90;;;;;;5070461;28;20227;-71
2021/05/20 08:10:39;;;;;;;1.55;1.25;;;12.50;99.90;;;;;;5070540;28;20215;-71
2021/05/20 08:13:05;;;;;;;1.42;1.33;;;12.50;99.90;;;;;;5070923;28;20204;-71
2021/05/20 08:15:31;;;;;;;1.58;1.30;;;12.60;99.90;;;;;;5069474;28;20196;-70
2021/05/20 08:17:58;;;;;;;2.60;1.50;;;12.60;99.90;;;;;;5065010;28;20350;-71
2021/05/20 08:20:24;;;;;;;1.40;1.30;;;12.50;99.90;;;;;;5067840;28;20466;-73
2021/05/20 08:22:50;;;;;;;1.40;1.30;;;12.50;99.90;;;;;;5065633;28;20489;-71
2021/05/20 08:25:17;;;;;;;1.65;1.20;;;12.50;99.90;;;;;;5068345;28;20458;-71
2021/05/20 08:27:44;;;;;;;1.30;1.00;;;12.60;99.90;;;;;;5067070;28;20602;-70
2021/05/20 08:30:11;;;;;;;3.77;1.40;;;12.60;99.90;;;;;;5067353;28;20201;-71
2021/05/20 08:32:37;;;;;;;1.10;0.95;;;12.60;99.90;;;;;;5068395;28;20469;-71
2021/05/20 08:35:05;;;;;;;1.10;1.00;;;12.80;99.90;;;;;;5066324;28;20193;-71
2021/05/20 08:37:31;;;;;;;1.33;1.20;;;12.80;99.90;;;;;;5067119;28;20224;-70
2021/05/20 08:39:57;;;;;;;1.23;1.13;;;12.90;99.90;;;;;;5067603;28;20196;-70
2021/05/20 08:42:23;;;;;;;1.27;1.17;;;13.00;99.90;;;;;;5066905;28;20840;-71
2021/05/20 08:44:50;;;;;;;1.27;1.00;;;13.20;99.90;;;;;;5067418;28;20823;-70
2021/05/20 08:47:18;;;;;;;1.83;1.20;;;13.40;99.90;;;;;;5065813;28;20455;-70
2021/05/20 08:49:47;;;;;;;3.63;1.20;;;13.60;99.90;;;;;;5067997;28;20227;-69
2021/05/20 08:52:14;;;;;;;1.30;1.13;;;13.80;99.90;;;;;;5068203;28;20914;-70
2021/05/20 08:54:40;;;;;;;2.20;1.10;;;14.10;99.90;;;;;;5067703;28;20462;-71
2021/05/20 08:57:07;;;;;;;1.30;1.20;;;14.30;99.90;;;;;;5066011;28;20997;-71
2021/05/20 08:59:33;;;;;;;1.20;1.10;;;14.40;99.90;;;;;;5065145;28;20872;-72
2021/05/20 09:02:00;;;;;;;1.37;1.07;;;14.30;99.90;;;;;;5066935;28;20475;-72
2021/05/20 09:04:26;;;;;;;1.27;1.10;;;14.10;99.90;;;;;;5067464;28;20467;-70
2021/05/20 09:06:55;;;;;;;2.30;1.23;;;14.00;99.90;;;;;;5064684;28;20884;-71
2021/05/20 09:09:24;;;;;;;1.63;1.20;;;14.00;99.90;;;;;;5067778;28;20489;-70
2021/05/20 09:11:51;;;;;;;1.20;1.10;;;13.90;99.90;;;;;;5068428;28;20506;-70
2021/05/20 09:14:32;;;;;;;1.83;1.30;;;13.90;99.90;;;;;;5066270;28;20470;-70
2021/05/20 09:17:10;;;;;;;1.20;1.10;;;13.80;99.90;;;;;;5067047;28;20482;-73
2021/05/20 09:19:37;;;;;;;1.07;0.97;;;13.70;99.90;;;;;;5066271;28;20578;-71
2021/05/20 09:22:05;;;;;;;1.80;1.10;;;13.70;99.90;;;;;;5067570;28;20474;-73
2021/05/20 09:24:47;;;;;;;1.20;1.10;;;13.60;99.90;;;;;;5068052;28;20463;-71
2021/05/20 09:27:24;;;;;;;2.37;1.20;;;13.50;99.90;;;;;;5063850;28;20573;-70
2021/05/20 09:30:16;;;;;;;1.40;1.10;;;13.50;99.90;;;;;;5065491;28;20461;-71
2021/05/20 09:32:46;;;;;;;1.37;1.10;;;13.60;99.90;;;;;;5065624;28;20583;-71
2021/05/20 09:35:12;;;;;;;1.37;1.03;;;13.80;99.90;;;;;;5066663;28;20459;-70
2021/05/20 09:37:48;;;;;;;1.90;1.20;;;14.20;99.90;;;;;;5066455;28;20539;-72
2021/05/20 09:40:16;;;;;;;1.20;1.07;;;14.70;99.90;;;;;;5065901;28;20515;-71
2021/05/20 09:42:44;;;;;;;1.93;1.13;;;14.70;99.90;;;;;;5067297;28;20458;-70
2021/05/20 09:45:13;;;;;;;1.47;1.20;;;14.60;99.90;;;;;;5069495;28;20469;-71
2021/05/20 09:47:39;;;;;;;1.20;1.07;;;14.40;99.90;;;;;;5069240;28;20865;-71
2021/05/20 09:50:07;;;;;;;1.80;1.07;;;14.30;99.90;;;;;;5070921;28;20470;-71
2021/05/20 09:52:34;;;;;;;1.30;0.97;;;14.30;99.90;;;;;;5063753;28;20458;-71
2021/05/20 09:55:01;;;;;;;1.20;1.10;;;14.20;99.90;;;;;;5070525;28;20477;-71
2021/05/20 09:57:30;;;;;;;1.63;1.27;;;14.20;99.90;;;;;;5069251;28;20490;-72
2021/05/20 10:00:16;;;;;;;1.73;1.30;;;14.20;99.90;;;;;;5069643;28;20854;-71
2021/05/20 10:02:46;;;;;;;1.20;1.10;;;14.20;99.90;;;;;;5070644;28;20516;-71
2021/05/20 10:05:23;;;;;;;1.53;1.17;;;14.20;99.90;;;;;;5069117;28;20504;-71
2021/05/20 10:07:50;;;;;;;1.70;1.10;;;14.30;99.90;;;;;;5068200;28;20485;-72
2021/05/20 10:10:17;;;;;;;1.10;1.00;;;14.30;99.90;;;;;;5070158;28;20462;-71
2021/05/20 10:12:45;;;;;;;1.27;1.17;;;14.40;99.90;;;;;;5071170;28;20463;-70
2021/05/20 10:15:13;;;;;;;1.43;0.90;;;14.60;99.90;;;;;;5070236;28;20949;-71
2021/05/20 10:17:41;;;;;;;2.00;1.20;;;14.60;99.90;;;;;;5069046;28;20486;-74
2021/05/20 10:20:09;;;;;;;2.70;1.20;;;14.60;99.90;;;;;;5069338;28;20953;-72
2021/05/20 10:22:36;;;;;;;1.13;0.90;;;14.80;99.90;;;;;;5069958;28;20459;-70
2021/05/20 10:25:04;;;;;;;1.30;1.13;;;15.30;99.90;;;;;;5070220;28;21033;-71
2021/05/20 10:27:31;;;;;;;2.00;0.97;;;15.60;99.90;;;;;;5068650;28;20486;-71
2021/05/20 10:29:59;;;;;;;1.30;1.10;;;15.50;99.90;;;;;;5070120;28;20454;-70
2021/05/20 10:32:26;;;;;;;1.00;0.90;;;15.30;99.90;;;;;;5068202;28;20506;-71
2021/05/20 10:35:00;;;;;;;1.20;1.10;;;15.10;99.90;;;;;;5070782;28;20511;-70
2021/05/20 10:37:36;;;;;;;1.40;1.17;;;15.00;99.90;;;;;;5068553;28;20851;-73
2021/05/20 10:40:05;;;;;;;1.20;0.90;;;14.80;99.90;;;;;;5069485;28;20565;-71
2021/05/20 10:42:36;;;;;;;1.20;1.10;;;14.60;99.90;;;;;;5069745;28;20458;-71
2021/05/20 10:45:23;;;;;;;1.37;1.10;;;14.50;99.90;;;;;;5068425;28;20485;-71
2021/05/20 10:48:20;;;;;;;1.17;1.00;;;14.40;99.90;;;;;;5068159;28;20485;-70
2021/05/20 10:51:20;;;;;;;1.23;1.10;;;14.40;99.90;;;;;;5066844;28;20834;-70
2021/05/20 10:54:13;;;;;;;1.00;0.83;;;14.50;99.90;;;;;;5061626;28;20466;-70
2021/05/20 10:56:58;;;;;;;1.87;1.67;;;14.80;99.90;;;;;;5068923;28;20494;-71
2021/05/20 10:59:45;;;;;;;2.10;1.17;;;15.20;99.90;;;;;;5070380;28;20549;-70
2021/05/20 11:02:40;;;;;;;1.10;1.00;;;15.90;99.90;;;;;;5071106;28;20463;-70
2021/05/20 11:05:57;;;;;;;2.30;0.90;;;16.70;99.90;;;;;;5071563;28;20466;-71
2021/05/20 11:08:52;;;;;;;0.80;0.80;;;17.60;99.10;;;;;;5068982;28;20573;-73
2021/05/20 11:11:23;;;;;;;1.13;1.00;;;18.50;98.60;;;;;;5070062;28;20454;-69
2021/05/20 11:13:50;;;;;;;1.20;0.80;;;18.70;96.00;;;;;;5058973;28;20512;-70
2021/05/20 11:16:17;;;;;;;1.57;0.90;;;18.50;95.00;;;;;;5064282;28;20461;-70
2021/05/20 11:18:45;;;;;;;1.23;0.90;;;18.20;94.40;;;;;;5057800;28;20489;-70
2021/05/20 11:21:11;;;;;;;1.07;0.93;;;17.60;93.70;;;;;;5065943;28;20527;-72
2021/05/20 11:23:38;;;;;;;1.10;0.90;;;17.10;93.10;;;;;;5060196;28;20446;-70
2021/05/20 11:26:12;;;;;;;1.37;1.10;;;16.70;94.40;;;;;;5062213;28;20462;-72
2021/05/20 11:28:43;;;;;;;1.40;0.90;;;16.40;94.50;;;;;;5066650;28;20877;-70
2021/05/20 11:31:11;;;;;;;1.67;1.00;;;16.10;95.10;;;;;;5070028;28;20458;-71
2021/05/20 11:33:47;;;;;;;0.90;0.80;;;15.80;95.30;;;;;;5070941;28;20601;-70
2021/05/20 11:36:14;;;;;;;1.00;0.80;;;15.80;96.50;;;;;;5065099;28;20612;-72
2021/05/20 11:38:59;;;;;;;2.30;0.90;;;15.80;96.00;;;;;;5067880;28;20474;-69
2021/05/20 11:41:25;;;;;;;1.00;0.90;;;15.90;95.80;;;;;;5068305;28;21003;-70
2021/05/20 11:44:12;;;;;;;2.10;0.90;;;16.00;95.00;;;;;;5065189;28;20502;-71
2021/05/20 11:46:41;;;;;;;1.67;0.80;;;16.10;93.90;;;;;;5064723;28;20477;-70
2021/05/20 11:49:24;;;;;;;0.80;0.80;;;16.00;93.80;;;;;;5066387;28;20520;-71
2021/05/20 11:51:53;;;;;;;1.23;1.00;;;16.00;94.60;;;;;;5066878;28;20462;-69
2021/05/20 11:54:21;;;;;;;1.50;0.90;;;16.30;95.40;;;;;;5066547;28;20471;-69
2021/05/20 11:56:50;;;;;;;1.20;0.90;;;17.00;97.00;;;;;;5070038;28;20485;-70
2021/05/20 11:59:21;;;;;;;1.63;1.00;;;17.50;93.30;;;;;;5066575;28;20479;-70
2021/05/20 12:01:48;;;;;;;0.90;0.80;;;17.80;93.60;;;;;;5067452;28;20466;-70
2021/05/20 12:04:16;;;;;;;1.10;0.90;;;18.10;95.40;;;;;;5070293;28;20485;-70
2021/05/20 12:06:49;;;;;;;2.33;1.17;;;18.20;94.90;;;;;;5066955;28;20469;-71
2021/05/20 12:09:16;;;;;;;2.90;1.10;;;18.10;94.00;;;;;;5068808;28;20481;-70
2021/05/20 12:11:43;;;;;;;1.97;1.10;;;17.80;93.50;;;;;;5066380;28;20982;-73
2021/05/20 12:14:30;;;;;;;4.10;1.10;;;18.00;93.60;;;;;;5060102;28;20477;-70
2021/05/20 12:17:16;;;;;;;1.10;1.00;;;18.50;92.50;;;;;;5054857;28;20521;-70
2021/05/20 12:19:46;;;;;;;1.20;1.10;;;19.00;91.70;;;;;;5067467;28;20458;-70
2021/05/20 12:22:14;;;;;;;1.10;1.00;;;18.70;92.20;;;;;;5067064;28;20458;-74
2021/05/20 12:24:43;;;;;;;1.20;0.90;;;18.30;92.10;;;;;;5063995;28;20954;-71
2021/05/20 12:27:18;;;;;;;1.20;1.00;;;17.80;92.20;;;;;;5057236;28;20462;-70
2021/05/20 12:29:46;;;;;;;2.10;0.90;;;17.50;92.40;;;;;;5065459;28;20470;-71
2021/05/20 12:32:35;;;;;;;0.90;0.80;;;17.20;93.20;;;;;;5062893;28;20466;-71
2021/05/20 12:35:27;;;;;;;1.50;0.93;;;16.70;93.40;;;;;;5056050;28;20462;-72
2021/05/20 12:38:06;;;;;;;1.77;1.00;;;16.50;94.70;;;;;;5058591;28;20490;-70
2021/05/20 12:40:35;;;;;;;1.60;1.00;;;16.20;94.60;;;;;;5056188;28;20507;-72
2021/05/20 12:43:17;;;;;;;1.00;0.87;;;16.10;94.70;;;;;;5064493;28;20466;-71
2021/05/20 12:45:50;;;;;;;1.00;0.80;;;16.00;94.30;;;;;;5060401;28;20466;-70
2021/05/20 12:48:26;;;;;;;1.23;0.90;;;15.90;94.70;;;;;;5064237;28;20487;-70
2021/05/20 12:50:53;;;;;;;1.10;0.90;;;15.70;95.90;;;;;;5052820;28;20467;-71
2021/05/20 12:53:28;;;;;;;1.00;0.80;;;15.70;96.80;;;;;;5060618;28;20466;-70
2021/05/20 12:55:55;;;;;;;1.20;1.00;;;15.40;96.60;;;;;;5066843;28;20462;-70
2021/05/20 12:58:21;;;;;;;0.90;0.80;;;15.30;97.40;;;;;;5064578;28;20486;-70
2021/05/20 13:00:57;;;;;;;2.23;1.40;;;15.20;97.00;;;;;;5066687;28;20470;-71
2021/05/20 13:03:26;;;;;;;1.10;1.00;;;15.20;96.80;;;;;;5066238;28;20462;-71